sensor_id;sensor_type;location;lat;lon;timestamp;pressure;altitude;pressure_sealevel;temperature;humidity
49657;BME280;71194;38.900;-77.124;2023-08-30T00:00:11;99691.73;;;29.51;54.82
49657;BME280;71194;38.900;-77.124;2023-08-30T00:02:39;99687.60;;;29.95;54.51
49657;BME280;71194;38.900;-77.124;2023-08-30T00:05:07;99692.01;;;29.56;54.76
49657;BME280;71194;38.900;-77.124;2023-08-30T00:07:35;99697.59;;;29.88;54.72
49657;BME280;71194;38.900;-77.124;2023-08-30T00:10:04;99696.69;;;29.72;54.64
49657;BME280;71194;38.900;-77.124;2023-08-30T00:12:32;99688.65;;;29.81;54.48
49657;BME280;71194;38.900;-77.124;2023-08-30T00:15:00;99687.06;;;29.42;55.16
49657;BME280;71194;38.900;-77.124;2023-08-30T00:17:28;99693.38;;;29.69;55.22
49657;BME280;71194;38.900;-77.124;2023-08-30T00:19:56;99695.09;;;29.19;55.36
49657;BME280;71194;38.900;-77.124;2023-08-30T00:22:26;99700.31;;;29.55;55.09
49657;BME280;71194;38.900;-77.124;2023-08-30T00:24:55;99702.38;;;29.59;54.93
49657;BME280;71194;38.900;-77.124;2023-08-30T00:27:23;99703.51;;;29.80;54.91
49657;BME280;71194;38.900;-77.124;2023-08-30T00:29:51;99697.58;;;29.94;54.66
49657;BME280;71194;38.900;-77.124;2023-08-30T00:32:19;99693.63;;;29.69;54.64
49657;BME280;71194;38.900;-77.124;2023-08-30T00:34:49;99693.52;;;29.60;54.75
49657;BME280;71194;38.900;-77.124;2023-08-30T00:37:17;99697.15;;;29.71;55.14
49657;BME280;71194;38.900;-77.124;2023-08-30T00:39:45;99703.60;;;29.55;54.99
49657;BME280;71194;38.900;-77.124;2023-08-30T00:42:13;99705.92;;;29.71;54.77
49657;BME280;71194;38.900;-77.124;2023-08-30T00:44:41;99709.08;;;29.73;54.67
49657;BME280;71194;38.900;-77.124;2023-08-30T00:47:09;99709.99;;;29.64;54.93
49657;BME280;71194;38.900;-77.124;2023-08-30T00:49:37;99706.03;;;30.04;55.11
49657;BME280;71194;38.900;-77.124;2023-08-30T00:52:07;99708.86;;;29.43;55.36
49657;BME280;71194;38.900;-77.124;2023-08-30T00:54:37;99711.91;;;29.49;55.32
49657;BME280;71194;38.900;-77.124;2023-08-30T00:57:06;99715.85;;;29.39;55.52
49657;BME280;71194;38.900;-77.124;2023-08-30T00:59:35;99723.17;;;29.66;55.50
49657;BME280;71194;38.900;-77.124;2023-08-30T01:02:04;99724.29;;;29.54;55.37
49657;BME280;71194;38.900;-77.124;2023-08-30T01:04:32;99724.25;;;29.41;55.64
49657;BME280;71194;38.900;-77.124;2023-08-30T01:07:00;99728.18;;;29.69;55.66
49657;BME280;71194;38.900;-77.124;2023-08-30T01:09:28;99731.61;;;29.73;55.56
49657;BME280;71194;38.900;-77.124;2023-08-30T01:12:00;99729.60;;;29.54;55.51
49657;BME280;71194;38.900;-77.124;2023-08-30T01:14:42;99730.53;;;29.59;55.43
49657;BME280;71194;38.900;-77.124;2023-08-30T01:17:14;99727.43;;;29.82;55.43
49657;BME280;71194;38.900;-77.124;2023-08-30T01:19:51;99728.51;;;29.58;55.48
49657;BME280;71194;38.900;-77.124;2023-08-30T01:22:32;99739.64;;;29.23;56.22
49657;BME280;71194;38.900;-77.124;2023-08-30T01:25:16;99750.37;;;29.61;56.19
49657;BME280;71194;38.900;-77.124;2023-08-30T01:27:47;99752.67;;;29.61;56.67
49657;BME280;71194;38.900;-77.124;2023-08-30T01:30:16;99752.95;;;29.39;56.90
49657;BME280;71194;38.900;-77.124;2023-08-30T01:32:45;99740.50;;;29.60;56.42
49657;BME280;71194;38.900;-77.124;2023-08-30T01:35:14;99732.38;;;29.51;56.18
49657;BME280;71194;38.900;-77.124;2023-08-30T01:37:43;99732.14;;;29.63;56.30
49657;BME280;71194;38.900;-77.124;2023-08-30T01:40:12;99731.15;;;29.45;56.34
49657;BME280;71194;38.900;-77.124;2023-08-30T01:42:41;99745.41;;;29.47;56.34
49657;BME280;71194;38.900;-77.124;2023-08-30T01:45:11;99747.13;;;29.54;56.30
49657;BME280;71194;38.900;-77.124;2023-08-30T01:47:41;99744.25;;;29.53;56.34
49657;BME280;71194;38.900;-77.124;2023-08-30T01:50:10;99739.11;;;29.50;56.53
49657;BME280;71194;38.900;-77.124;2023-08-30T01:52:39;99735.66;;;29.77;56.49
49657;BME280;71194;38.900;-77.124;2023-08-30T01:55:08;99735.86;;;29.51;56.55
49657;BME280;71194;38.900;-77.124;2023-08-30T01:57:37;99737.78;;;29.32;57.18
49657;BME280;71194;38.900;-77.124;2023-08-30T02:00:06;99735.90;;;29.47;57.28
49657;BME280;71194;38.900;-77.124;2023-08-30T02:02:34;99732.23;;;29.36;57.68
49657;BME280;71194;38.900;-77.124;2023-08-30T02:05:03;99729.94;;;29.36;57.66
49657;BME280;71194;38.900;-77.124;2023-08-30T02:07:39;99725.98;;;29.47;57.41
49657;BME280;71194;38.900;-77.124;2023-08-30T02:10:14;99729.84;;;29.59;57.15
49657;BME280;71194;38.900;-77.124;2023-08-30T02:12:47;99735.02;;;29.36;57.21
49657;BME280;71194;38.900;-77.124;2023-08-30T02:15:17;99735.18;;;29.44;57.13
49657;BME280;71194;38.900;-77.124;2023-08-30T02:17:46;99741.02;;;29.64;57.26
49657;BME280;71194;38.900;-77.124;2023-08-30T02:20:14;99744.70;;;29.31;57.44
49657;BME280;71194;38.900;-77.124;2023-08-30T02:22:41;99747.67;;;29.19;57.85
49657;BME280;71194;38.900;-77.124;2023-08-30T02:25:10;99743.48;;;29.55;58.09
49657;BME280;71194;38.900;-77.124;2023-08-30T02:27:37;99737.65;;;29.42;57.93
49657;BME280;71194;38.900;-77.124;2023-08-30T02:30:06;99742.40;;;29.68;57.85
49657;BME280;71194;38.900;-77.124;2023-08-30T02:32:34;99743.23;;;29.37;58.00
49657;BME280;71194;38.900;-77.124;2023-08-30T02:35:02;99737.96;;;29.19;57.92
49657;BME280;71194;38.900;-77.124;2023-08-30T02:37:29;99739.34;;;29.32;58.04
49657;BME280;71194;38.900;-77.124;2023-08-30T02:39:58;99745.70;;;29.04;58.23
49657;BME280;71194;38.900;-77.124;2023-08-30T02:42:25;99746.32;;;29.40;57.90
49657;BME280;71194;38.900;-77.124;2023-08-30T02:44:54;99748.05;;;29.18;58.23
49657;BME280;71194;38.900;-77.124;2023-08-30T02:47:21;99744.18;;;29.28;58.16
49657;BME280;71194;38.900;-77.124;2023-08-30T02:49:49;99737.61;;;29.28;58.07
49657;BME280;71194;38.900;-77.124;2023-08-30T02:52:18;99734.17;;;29.04;58.53
49657;BME280;71194;38.900;-77.124;2023-08-30T02:54:46;99732.61;;;29.00;58.80
49657;BME280;71194;38.900;-77.124;2023-08-30T02:57:14;99730.80;;;29.03;58.69
49657;BME280;71194;38.900;-77.124;2023-08-30T02:59:42;99737.75;;;29.16;58.52
49657;BME280;71194;38.900;-77.124;2023-08-30T03:02:10;99744.40;;;29.47;58.32
49657;BME280;71194;38.900;-77.124;2023-08-30T03:04:38;99743.25;;;29.26;58.35
49657;BME280;71194;38.900;-77.124;2023-08-30T03:07:06;99734.64;;;29.34;58.16
49657;BME280;71194;38.900;-77.124;2023-08-30T03:09:34;99734.49;;;29.25;58.31
49657;BME280;71194;38.900;-77.124;2023-08-30T03:12:01;99734.39;;;28.97;58.64
49657;BME280;71194;38.900;-77.124;2023-08-30T03:14:29;99738.48;;;29.29;58.54
49657;BME280;71194;38.900;-77.124;2023-08-30T03:16:57;99730.48;;;29.35;58.44
49657;BME280;71194;38.900;-77.124;2023-08-30T03:19:25;99729.99;;;29.28;58.66
49657;BME280;71194;38.900;-77.124;2023-08-30T03:21:53;99728.19;;;29.29;58.68
49657;BME280;71194;38.900;-77.124;2023-08-30T03:24:21;99726.97;;;29.66;58.48
49657;BME280;71194;38.900;-77.124;2023-08-30T03:26:49;99727.32;;;28.97;58.84
49657;BME280;71194;38.900;-77.124;2023-08-30T03:29:17;99717.53;;;29.53;58.84
49657;BME280;71194;38.900;-77.124;2023-08-30T03:31:45;99705.66;;;29.18;59.10
49657;BME280;71194;38.900;-77.124;2023-08-30T03:34:13;99700.16;;;29.17;59.14
49657;BME280;71194;38.900;-77.124;2023-08-30T03:36:41;99699.17;;;29.09;59.26
49657;BME280;71194;38.900;-77.124;2023-08-30T03:39:09;99696.14;;;29.16;59.26
49657;BME280;71194;38.900;-77.124;2023-08-30T03:41:36;99686.88;;;29.54;58.93
49657;BME280;71194;38.900;-77.124;2023-08-30T03:44:05;99681.29;;;29.25;59.00
49657;BME280;71194;38.900;-77.124;2023-08-30T03:46:33;99680.63;;;29.01;59.17
49657;BME280;71194;38.900;-77.124;2023-08-30T03:49:00;99679.63;;;29.43;59.45
49657;BME280;71194;38.900;-77.124;2023-08-30T03:51:28;99671.32;;;29.19;59.23
49657;BME280;71194;38.900;-77.124;2023-08-30T03:53:56;99661.14;;;28.95;59.78
49657;BME280;71194;38.900;-77.124;2023-08-30T03:56:24;99657.88;;;29.17;60.12
49657;BME280;71194;38.900;-77.124;2023-08-30T03:58:52;99655.37;;;28.72;60.11
49657;BME280;71194;38.900;-77.124;2023-08-30T04:01:20;99656.25;;;28.77;60.38
49657;BME280;71194;38.900;-77.124;2023-08-30T04:03:48;99654.09;;;29.18;60.28
49657;BME280;71194;38.900;-77.124;2023-08-30T04:06:16;99650.73;;;29.28;59.98
49657;BME280;71194;38.900;-77.124;2023-08-30T04:08:44;99647.18;;;29.07;59.94
49657;BME280;71194;38.900;-77.124;2023-08-30T04:11:11;99647.87;;;28.94;60.13
49657;BME280;71194;38.900;-77.124;2023-08-30T04:13:39;99653.81;;;28.89;60.36
49657;BME280;71194;38.900;-77.124;2023-08-30T04:16:07;99654.30;;;28.82;60.62
49657;BME280;71194;38.900;-77.124;2023-08-30T04:18:36;99657.04;;;28.97;61.05
49657;BME280;71194;38.900;-77.124;2023-08-30T04:21:03;99659.57;;;29.13;60.97
49657;BME280;71194;38.900;-77.124;2023-08-30T04:23:31;99664.29;;;29.01;61.28
49657;BME280;71194;38.900;-77.124;2023-08-30T04:25:59;99659.32;;;28.99;60.89
49657;BME280;71194;38.900;-77.124;2023-08-30T04:28:27;99649.80;;;29.26;60.93
49657;BME280;71194;38.900;-77.124;2023-08-30T04:30:55;99649.02;;;29.22;60.83
49657;BME280;71194;38.900;-77.124;2023-08-30T04:33:24;99651.33;;;29.10;61.17
49657;BME280;71194;38.900;-77.124;2023-08-30T04:35:53;99643.53;;;29.16;61.11
49657;BME280;71194;38.900;-77.124;2023-08-30T04:38:21;99643.18;;;29.06;61.11
49657;BME280;71194;38.900;-77.124;2023-08-30T04:40:49;99638.20;;;28.98;61.54
49657;BME280;71194;38.900;-77.124;2023-08-30T04:43:17;99636.85;;;29.05;61.32
49657;BME280;71194;38.900;-77.124;2023-08-30T04:45:48;99632.25;;;28.82;61.44
49657;BME280;71194;38.900;-77.124;2023-08-30T04:48:15;99627.90;;;28.83;61.51
49657;BME280;71194;38.900;-77.124;2023-08-30T04:50:43;99631.87;;;28.94;61.24
49657;BME280;71194;38.900;-77.124;2023-08-30T04:53:11;99628.34;;;28.88;61.34
49657;BME280;71194;38.900;-77.124;2023-08-30T04:55:39;99625.28;;;29.10;61.57
49657;BME280;71194;38.900;-77.124;2023-08-30T04:58:07;99621.88;;;29.02;61.08
49657;BME280;71194;38.900;-77.124;2023-08-30T05:00:35;99621.36;;;28.82;61.51
49657;BME280;71194;38.900;-77.124;2023-08-30T05:03:03;99620.21;;;28.93;61.25
49657;BME280;71194;38.900;-77.124;2023-08-30T05:05:30;99618.37;;;29.17;61.24
49657;BME280;71194;38.900;-77.124;2023-08-30T05:07:58;99615.84;;;29.13;61.36
49657;BME280;71194;38.900;-77.124;2023-08-30T05:10:26;99609.95;;;28.90;61.35
49657;BME280;71194;38.900;-77.124;2023-08-30T05:12:55;99603.85;;;29.23;61.23
49657;BME280;71194;38.900;-77.124;2023-08-30T05:15:22;99601.94;;;29.21;61.23
49657;BME280;71194;38.900;-77.124;2023-08-30T05:17:50;99598.53;;;29.16;61.34
49657;BME280;71194;38.900;-77.124;2023-08-30T05:20:18;99602.68;;;28.68;61.79
49657;BME280;71194;38.900;-77.124;2023-08-30T05:22:46;99606.29;;;28.82;61.81
49657;BME280;71194;38.900;-77.124;2023-08-30T05:25:14;99601.50;;;28.78;61.92
49657;BME280;71194;38.900;-77.124;2023-08-30T05:27:42;99593.10;;;29.04;61.89
49657;BME280;71194;38.900;-77.124;2023-08-30T05:30:11;99587.62;;;28.88;61.74
49657;BME280;71194;38.900;-77.124;2023-08-30T05:32:39;99582.64;;;28.77;61.97
49657;BME280;71194;38.900;-77.124;2023-08-30T05:35:08;99570.81;;;29.19;61.68
49657;BME280;71194;38.900;-77.124;2023-08-30T05:37:35;99564.84;;;29.22;61.50
49657;BME280;71194;38.900;-77.124;2023-08-30T05:40:04;99561.37;;;29.18;61.36
49657;BME280;71194;38.900;-77.124;2023-08-30T05:42:32;99567.30;;;28.68;62.10
49657;BME280;71194;38.900;-77.124;2023-08-30T05:45:00;99574.18;;;28.74;62.35
49657;BME280;71194;38.900;-77.124;2023-08-30T05:47:28;99575.61;;;28.81;62.01
49657;BME280;71194;38.900;-77.124;2023-08-30T05:49:56;99573.91;;;28.66;62.66
49657;BME280;71194;38.900;-77.124;2023-08-30T05:52:23;99571.31;;;28.88;62.61
49657;BME280;71194;38.900;-77.124;2023-08-30T05:54:51;99565.60;;;29.06;62.18
49657;BME280;71194;38.900;-77.124;2023-08-30T05:57:19;99559.99;;;29.12;61.97
49657;BME280;71194;38.900;-77.124;2023-08-30T05:59:47;99554.79;;;28.89;62.56
49657;BME280;71194;38.900;-77.124;2023-08-30T06:02:15;99553.15;;;28.76;62.12
49657;BME280;71194;38.900;-77.124;2023-08-30T06:04:43;99547.42;;;29.11;61.86
49657;BME280;71194;38.900;-77.124;2023-08-30T06:07:11;99541.39;;;28.86;61.63
49657;BME280;71194;38.900;-77.124;2023-08-30T06:09:39;99535.29;;;28.74;61.76
49657;BME280;71194;38.900;-77.124;2023-08-30T06:12:07;99534.00;;;28.87;61.68
49657;BME280;71194;38.900;-77.124;2023-08-30T06:14:35;99529.60;;;29.18;61.56
49657;BME280;71194;38.900;-77.124;2023-08-30T06:17:03;99530.20;;;28.80;61.93
49657;BME280;71194;38.900;-77.124;2023-08-30T06:19:31;99528.12;;;28.88;61.64
49657;BME280;71194;38.900;-77.124;2023-08-30T06:21:59;99522.94;;;29.04;61.84
49657;BME280;71194;38.900;-77.124;2023-08-30T06:24:27;99518.32;;;28.90;62.03
49657;BME280;71194;38.900;-77.124;2023-08-30T06:26:55;99508.63;;;28.90;62.19
49657;BME280;71194;38.900;-77.124;2023-08-30T06:29:23;99501.46;;;29.00;62.02
49657;BME280;71194;38.900;-77.124;2023-08-30T06:31:51;99497.82;;;28.89;62.04
49657;BME280;71194;38.900;-77.124;2023-08-30T06:34:19;99498.14;;;28.56;62.32
49657;BME280;71194;38.900;-77.124;2023-08-30T06:36:46;99498.94;;;28.61;62.19
49657;BME280;71194;38.900;-77.124;2023-08-30T06:39:16;99493.98;;;28.84;62.32
49657;BME280;71194;38.900;-77.124;2023-08-30T06:41:45;99496.42;;;28.85;62.48
49657;BME280;71194;38.900;-77.124;2023-08-30T06:44:12;99497.41;;;28.80;62.72
49657;BME280;71194;38.900;-77.124;2023-08-30T06:46:40;99500.23;;;28.76;62.95
49657;BME280;71194;38.900;-77.124;2023-08-30T06:49:08;99500.07;;;28.80;62.96
49657;BME280;71194;38.900;-77.124;2023-08-30T06:51:36;99495.20;;;28.74;63.05
49657;BME280;71194;38.900;-77.124;2023-08-30T06:54:04;99493.11;;;28.86;63.25
49657;BME280;71194;38.900;-77.124;2023-08-30T06:56:32;99486.76;;;28.54;63.49
49657;BME280;71194;38.900;-77.124;2023-08-30T06:59:00;99487.75;;;28.50;64.13
49657;BME280;71194;38.900;-77.124;2023-08-30T07:01:28;99484.05;;;28.60;63.83
49657;BME280;71194;38.900;-77.124;2023-08-30T07:03:56;99481.60;;;28.44;63.77
49657;BME280;71194;38.900;-77.124;2023-08-30T07:06:24;99473.44;;;29.09;63.45
49657;BME280;71194;38.900;-77.124;2023-08-30T07:08:57;99463.28;;;28.58;63.26
49657;BME280;71194;38.900;-77.124;2023-08-30T07:11:25;99462.64;;;28.74;63.47
49657;BME280;71194;38.900;-77.124;2023-08-30T07:13:53;99461.30;;;28.78;63.53
49657;BME280;71194;38.900;-77.124;2023-08-30T07:16:20;99455.27;;;28.66;63.82
49657;BME280;71194;38.900;-77.124;2023-08-30T07:18:48;99457.09;;;28.58;64.05
49657;BME280;71194;38.900;-77.124;2023-08-30T07:21:16;99459.92;;;28.70;64.24
49657;BME280;71194;38.900;-77.124;2023-08-30T07:23:44;99457.92;;;28.66;64.30
49657;BME280;71194;38.900;-77.124;2023-08-30T07:26:12;99459.74;;;28.86;63.83
49657;BME280;71194;38.900;-77.124;2023-08-30T07:28:40;99458.69;;;28.58;64.08
49657;BME280;71194;38.900;-77.124;2023-08-30T07:31:08;99451.05;;;28.43;64.11
49657;BME280;71194;38.900;-77.124;2023-08-30T07:33:36;99445.43;;;28.88;64.21
49657;BME280;71194;38.900;-77.124;2023-08-30T07:36:04;99444.92;;;29.05;63.70
49657;BME280;71194;38.900;-77.124;2023-08-30T07:38:32;99445.34;;;29.00;63.79
49657;BME280;71194;38.900;-77.124;2023-08-30T07:41:00;99444.89;;;28.96;63.72
49657;BME280;71194;38.900;-77.124;2023-08-30T07:43:28;99450.15;;;28.78;64.50
49657;BME280;71194;38.900;-77.124;2023-08-30T07:45:55;99454.27;;;28.34;64.42
49657;BME280;71194;38.900;-77.124;2023-08-30T07:48:23;99450.78;;;28.94;64.33
49657;BME280;71194;38.900;-77.124;2023-08-30T07:50:51;99450.00;;;28.95;64.22
49657;BME280;71194;38.900;-77.124;2023-08-30T07:53:19;99450.43;;;28.73;63.84
49657;BME280;71194;38.900;-77.124;2023-08-30T07:55:49;99446.56;;;28.83;64.35
49657;BME280;71194;38.900;-77.124;2023-08-30T07:58:17;99444.89;;;28.89;64.26
49657;BME280;71194;38.900;-77.124;2023-08-30T08:00:45;99441.67;;;28.80;64.22
49657;BME280;71194;38.900;-77.124;2023-08-30T08:03:17;99435.94;;;28.70;64.64
49657;BME280;71194;38.900;-77.124;2023-08-30T08:05:45;99438.94;;;28.71;64.61
49657;BME280;71194;38.900;-77.124;2023-08-30T08:08:13;99432.59;;;28.82;64.66
49657;BME280;71194;38.900;-77.124;2023-08-30T08:10:42;99418.44;;;28.65;64.92
49657;BME280;71194;38.900;-77.124;2023-08-30T08:13:10;99414.21;;;28.71;64.98
49657;BME280;71194;38.900;-77.124;2023-08-30T08:15:38;99412.68;;;28.58;64.64
49657;BME280;71194;38.900;-77.124;2023-08-30T08:18:06;99406.69;;;28.53;65.65
49657;BME280;71194;38.900;-77.124;2023-08-30T08:20:34;99407.19;;;28.52;65.46
49657;BME280;71194;38.900;-77.124;2023-08-30T08:23:02;99409.40;;;28.46;65.76
49657;BME280;71194;38.900;-77.124;2023-08-30T08:25:29;99406.98;;;28.30;65.83
49657;BME280;71194;38.900;-77.124;2023-08-30T08:27:57;99399.76;;;28.35;65.61
49657;BME280;71194;38.900;-77.124;2023-08-30T08:30:25;99387.88;;;28.74;65.57
49657;BME280;71194;38.900;-77.124;2023-08-30T08:32:53;99368.55;;;28.73;64.83
49657;BME280;71194;38.900;-77.124;2023-08-30T08:35:21;99359.44;;;28.74;64.60
49657;BME280;71194;38.900;-77.124;2023-08-30T08:37:49;99370.17;;;28.47;65.26
49657;BME280;71194;38.900;-77.124;2023-08-30T08:40:17;99367.73;;;28.53;65.27
49657;BME280;71194;38.900;-77.124;2023-08-30T08:42:45;99364.65;;;28.82;64.98
49657;BME280;71194;38.900;-77.124;2023-08-30T08:45:14;99367.29;;;28.85;64.46
49657;BME280;71194;38.900;-77.124;2023-08-30T08:47:43;99374.42;;;29.01;64.91
49657;BME280;71194;38.900;-77.124;2023-08-30T08:50:13;99366.86;;;28.90;64.60
49657;BME280;71194;38.900;-77.124;2023-08-30T08:52:41;99369.86;;;28.86;64.59
49657;BME280;71194;38.900;-77.124;2023-08-30T08:55:09;99368.49;;;28.59;65.37
49657;BME280;71194;38.900;-77.124;2023-08-30T08:57:38;99367.84;;;28.86;64.96
49657;BME280;71194;38.900;-77.124;2023-08-30T09:00:07;99374.65;;;29.02;64.54
49657;BME280;71194;38.900;-77.124;2023-08-30T09:02:35;99372.17;;;28.49;64.75
49657;BME280;71194;38.900;-77.124;2023-08-30T09:05:03;99375.88;;;28.69;64.47
49657;BME280;71194;38.900;-77.124;2023-08-30T09:07:31;99390.58;;;28.80;65.13
49657;BME280;71194;38.900;-77.124;2023-08-30T09:10:00;99390.25;;;28.81;64.64
49657;BME280;71194;38.900;-77.124;2023-08-30T09:12:27;99395.00;;;29.08;64.38
49657;BME280;71194;38.900;-77.124;2023-08-30T09:14:59;99394.61;;;29.06;64.41
49657;BME280;71194;38.900;-77.124;2023-08-30T09:17:36;99399.53;;;28.96;64.84
49657;BME280;71194;38.900;-77.124;2023-08-30T09:20:13;99397.46;;;28.97;64.72
49657;BME280;71194;38.900;-77.124;2023-08-30T09:22:41;99388.33;;;28.64;64.78
49657;BME280;71194;38.900;-77.124;2023-08-30T09:25:10;99384.22;;;28.70;64.76
49657;BME280;71194;38.900;-77.124;2023-08-30T09:27:39;99388.27;;;28.76;64.86
49657;BME280;71194;38.900;-77.124;2023-08-30T09:30:08;99386.95;;;28.54;65.49
49657;BME280;71194;38.900;-77.124;2023-08-30T09:32:40;99391.77;;;28.35;65.57
49657;BME280;71194;38.900;-77.124;2023-08-30T09:35:09;99392.52;;;28.47;65.66
49657;BME280;71194;38.900;-77.124;2023-08-30T09:37:37;99388.97;;;28.63;65.40
49657;BME280;71194;38.900;-77.124;2023-08-30T09:40:06;99393.05;;;28.54;65.11
49657;BME280;71194;38.900;-77.124;2023-08-30T09:42:34;99394.58;;;28.63;65.33
49657;BME280;71194;38.900;-77.124;2023-08-30T09:45:05;99398.18;;;28.83;64.55
49657;BME280;71194;38.900;-77.124;2023-08-30T09:47:33;99396.89;;;28.38;65.15
49657;BME280;71194;38.900;-77.124;2023-08-30T09:50:00;99398.88;;;28.09;65.46
49657;BME280;71194;38.900;-77.124;2023-08-30T09:52:30;99399.88;;;28.74;64.54
49657;BME280;71194;38.900;-77.124;2023-08-30T09:54:59;99395.91;;;28.36;63.92
49657;BME280;71194;38.900;-77.124;2023-08-30T09:57:27;99398.89;;;28.87;63.80
49657;BME280;71194;38.900;-77.124;2023-08-30T09:59:57;99404.40;;;28.70;63.47
49657;BME280;71194;38.900;-77.124;2023-08-30T10:02:25;99409.77;;;28.91;63.10
49657;BME280;71194;38.900;-77.124;2023-08-30T10:04:53;99411.71;;;28.95;62.97
49657;BME280;71194;38.900;-77.124;2023-08-30T10:07:21;99415.78;;;28.45;63.57
49657;BME280;71194;38.900;-77.124;2023-08-30T10:09:51;99418.75;;;28.77;63.72
49657;BME280;71194;38.900;-77.124;2023-08-30T10:12:20;99421.86;;;28.38;63.74
49657;BME280;71194;38.900;-77.124;2023-08-30T10:14:49;99428.59;;;28.39;64.22
49657;BME280;71194;38.900;-77.124;2023-08-30T10:17:18;99427.70;;;28.49;64.07
49657;BME280;71194;38.900;-77.124;2023-08-30T10:19:50;99429.15;;;28.52;63.45
49657;BME280;71194;38.900;-77.124;2023-08-30T10:22:21;99432.74;;;28.25;63.84
49657;BME280;71194;38.900;-77.124;2023-08-30T10:24:54;99431.13;;;28.16;64.82
49657;BME280;71194;38.900;-77.124;2023-08-30T10:27:24;99430.31;;;28.20;64.27
49657;BME280;71194;38.900;-77.124;2023-08-30T10:29:54;99436.16;;;28.07;64.44
49657;BME280;71194;38.900;-77.124;2023-08-30T10:32:22;99444.59;;;28.13;64.54
49657;BME280;71194;38.900;-77.124;2023-08-30T10:34:51;99446.21;;;28.23;64.30
49657;BME280;71194;38.900;-77.124;2023-08-30T10:37:26;99450.97;;;27.89;63.94
49657;BME280;71194;38.900;-77.124;2023-08-30T10:40:00;99454.92;;;28.46;62.46
49657;BME280;71194;38.900;-77.124;2023-08-30T10:42:28;99453.95;;;28.57;62.19
49657;BME280;71194;38.900;-77.124;2023-08-30T10:44:58;99452.56;;;28.59;61.92
49657;BME280;71194;38.900;-77.124;2023-08-30T10:47:27;99456.24;;;28.78;61.36
49657;BME280;71194;38.900;-77.124;2023-08-30T10:49:57;99462.61;;;28.54;61.72
49657;BME280;71194;38.900;-77.124;2023-08-30T10:52:26;99461.38;;;28.65;61.83
49657;BME280;71194;38.900;-77.124;2023-08-30T10:55:05;99460.30;;;28.80;61.05
49657;BME280;71194;38.900;-77.124;2023-08-30T10:57:33;99463.50;;;28.93;60.95
49657;BME280;71194;38.900;-77.124;2023-08-30T11:00:06;99462.07;;;28.95;60.47
49657;BME280;71194;38.900;-77.124;2023-08-30T11:02:35;99464.61;;;28.84;60.49
49657;BME280;71194;38.900;-77.124;2023-08-30T11:05:06;99472.11;;;28.81;60.62
49657;BME280;71194;38.900;-77.124;2023-08-30T11:07:34;99471.01;;;29.01;60.73
49657;BME280;71194;38.900;-77.124;2023-08-30T11:10:04;99476.37;;;28.74;60.36
49657;BME280;71194;38.900;-77.124;2023-08-30T11:12:33;99483.47;;;28.82;59.99
49657;BME280;71194;38.900;-77.124;2023-08-30T11:15:01;99491.05;;;28.79;60.23
49657;BME280;71194;38.900;-77.124;2023-08-30T11:17:29;99491.67;;;29.48;59.92
49657;BME280;71194;38.900;-77.124;2023-08-30T11:20:07;99490.57;;;29.66;59.21
49657;BME280;71194;38.900;-77.124;2023-08-30T11:22:36;99494.38;;;29.73;58.15
49657;BME280;71194;38.900;-77.124;2023-08-30T11:25:05;99500.64;;;29.43;58.59
49657;BME280;71194;38.900;-77.124;2023-08-30T11:27:35;99504.18;;;29.38;58.97
49657;BME280;71194;38.900;-77.124;2023-08-30T11:30:04;99509.08;;;29.55;58.57
49657;BME280;71194;38.900;-77.124;2023-08-30T11:32:33;99507.90;;;29.88;58.28
49657;BME280;71194;38.900;-77.124;2023-08-30T11:35:00;99506.80;;;29.95;57.91
49657;BME280;71194;38.900;-77.124;2023-08-30T11:37:29;99505.76;;;29.95;57.72
49657;BME280;71194;38.900;-77.124;2023-08-30T11:39:57;99507.93;;;29.61;58.02
49657;BME280;71194;38.900;-77.124;2023-08-30T11:42:26;99503.45;;;29.93;57.59
49657;BME280;71194;38.900;-77.124;2023-08-30T11:44:55;99506.32;;;30.01;56.84
49657;BME280;71194;38.900;-77.124;2023-08-30T11:47:24;99513.89;;;30.05;57.34
49657;BME280;71194;38.900;-77.124;2023-08-30T11:49:55;99518.08;;;30.21;56.63
49657;BME280;71194;38.900;-77.124;2023-08-30T11:52:24;99521.15;;;30.29;56.33
49657;BME280;71194;38.900;-77.124;2023-08-30T11:54:53;99520.82;;;30.49;55.13
49657;BME280;71194;38.900;-77.124;2023-08-30T11:57:21;99526.55;;;30.02;54.72
49657;BME280;71194;38.900;-77.124;2023-08-30T11:59:49;99537.21;;;30.46;54.53
49657;BME280;71194;38.900;-77.124;2023-08-30T12:02:18;99539.44;;;30.03;54.62
49657;BME280;71194;38.900;-77.124;2023-08-30T12:04:47;99536.53;;;30.33;54.29
49657;BME280;71194;38.900;-77.124;2023-08-30T12:07:21;99535.61;;;30.50;53.10
49657;BME280;71194;38.900;-77.124;2023-08-30T12:09:49;99537.76;;;30.65;51.68
49657;BME280;71194;38.900;-77.124;2023-08-30T12:12:17;99545.78;;;31.03;51.13
49657;BME280;71194;38.900;-77.124;2023-08-30T12:14:45;99551.77;;;30.41;49.55
49657;BME280;71194;38.900;-77.124;2023-08-30T12:17:13;99550.46;;;30.25;48.00
49657;BME280;71194;38.900;-77.124;2023-08-30T12:19:41;99548.28;;;29.94;48.15
49657;BME280;71194;38.900;-77.124;2023-08-30T12:22:08;99544.78;;;30.32;47.51
49657;BME280;71194;38.900;-77.124;2023-08-30T12:24:44;99546.65;;;30.48;47.59
49657;BME280;71194;38.900;-77.124;2023-08-30T12:27:12;99549.49;;;30.79;46.92
49657;BME280;71194;38.900;-77.124;2023-08-30T12:29:41;99553.27;;;30.60;46.96
49657;BME280;71194;38.900;-77.124;2023-08-30T12:32:08;99553.78;;;30.62;46.73
49657;BME280;71194;38.900;-77.124;2023-08-30T12:34:36;99552.26;;;30.48;46.24
49657;BME280;71194;38.900;-77.124;2023-08-30T12:37:04;99558.57;;;30.16;46.24
49657;BME280;71194;38.900;-77.124;2023-08-30T12:39:32;99563.05;;;30.44;45.64
49657;BME280;71194;38.900;-77.124;2023-08-30T12:42:01;99558.87;;;30.44;45.61
49657;BME280;71194;38.900;-77.124;2023-08-30T12:44:29;99553.40;;;30.73;45.43
49657;BME280;71194;38.900;-77.124;2023-08-30T12:46:56;99552.35;;;30.28;46.30